Time;durP1;ratioP1;P1;durP2;ratioP2;P2;SDS_P1;SDS_P2;PMS_P1;PMS_P2;Temp;Humidity;BMP_temperature;BMP_pressure;BME280_temperature;BME280_humidity;BME280_pressure;Samples;Min_cycle;Max_cycle;Signal;HPM_P1;HPM_P2
2024/02/07 00:04:33;;;;;;;3.90;2.72;;;;;;;9.11;97.03;99501.16;10393128;28;20666;-61
2024/02/07 00:09:35;;;;;;;3.22;2.80;;;;;;;9.06;96.76;99497.19;10384402;28;20049;-63
2024/02/07 00:14:37;;;;;;;3.63;2.50;;;;;;;8.99;97.38;99481.81;10385790;28;20624;-62
2024/02/07 00:19:39;;;;;;;4.00;3.25;;;;;;;8.98;97.76;99460.69;10369093;28;20057;-61
2024/02/07 00:24:40;;;;;;;4.05;3.20;;;;;;;9.00;97.51;99451.59;10390842;28;20133;-64
2024/02/07 00:29:42;;;;;;;5.13;3.10;;;;;;;9.03;97.80;99469.09;10372887;28;20057;-62
2024/02/07 00:34:43;;;;;;;3.40;2.55;;;;;;;9.02;97.86;99470.06;10390805;28;20139;-63
2024/02/07 00:39:45;;;;;;;5.15;2.97;;;;;;;9.00;97.51;99450.78;10387844;28;20037;-63
2024/02/07 00:44:48;;;;;;;3.90;3.10;;;;;;;9.14;97.26;99476.97;10385352;28;20178;-63
2024/02/07 00:49:49;;;;;;;3.45;3.03;;;;;;;9.19;97.14;99448.19;10391266;28;20050;-63
2024/02/07 00:54:51;;;;;;;3.70;2.85;;;;;;;9.14;97.33;99439.81;10389541;28;20069;-63
2024/02/07 00:59:53;;;;;;;4.70;3.72;;;;;;;9.18;97.33;99446.50;10379477;28;20123;-65
2024/02/07 01:04:55;;;;;;;6.10;3.95;;;;;;;9.21;97.39;99437.44;10388017;28;20055;-62
2024/02/07 01:09:57;;;;;;;6.15;4.32;;;;;;;9.25;97.12;99424.72;10388688;28;20734;-64
2024/02/07 01:14:58;;;;;;;6.80;5.00;;;;;;;9.29;96.97;99421.69;10386865;28;20144;-64
2024/02/07 01:20:00;;;;;;;6.60;4.47;;;;;;;9.31;96.89;99409.09;10364051;28;21148;-63
2024/02/07 01:25:02;;;;;;;5.57;4.50;;;;;;;9.35;96.99;99404.34;10379438;28;20048;-60
2024/02/07 01:30:07;;;;;;;5.50;4.95;;;;;;;9.36;96.53;99406.88;10399911;28;20227;-65
2024/02/07 01:35:12;;;;;;;7.28;5.18;;;;;;;9.33;96.78;99385.88;10389380;28;20041;-62
2024/02/07 01:40:14;;;;;;;7.57;5.15;;;;;;;9.43;96.54;99395.69;10375195;28;20043;-62
2024/02/07 01:45:19;;;;;;;6.32;4.45;;;;;;;9.51;96.59;99396.69;10368332;28;20099;-64
2024/02/07 01:50:20;;;;;;;8.82;5.60;;;;;;;9.49;97.03;99400.47;10371069;28;20041;-63
2024/02/07 01:55:22;;;;;;;6.90;5.70;;;;;;;9.52;97.34;99389.56;10373709;28;20485;-62
2024/02/07 02:00:27;;;;;;;9.43;5.30;;;;;;;9.52;98.38;99371.81;10379409;28;20048;-64
2024/02/07 02:05:28;;;;;;;7.37;5.53;;;;;;;9.53;99.16;99364.66;10387536;28;20189;-64
2024/02/07 02:10:30;;;;;;;7.20;5.57;;;;;;;9.40;99.26;99353.47;10386959;28;20053;-62
2024/02/07 02:15:33;;;;;;;10.48;6.03;;;;;;;9.49;99.47;99353.50;10385887;28;20146;-65
2024/02/07 02:20:36;;;;;;;7.88;6.22;;;;;;;9.50;99.54;99349.88;10382373;28;20242;-64
2024/02/07 02:25:49;;;;;;;9.17;6.30;;;;;;;9.50;99.38;99347.22;10376348;28;20615;-63
2024/02/07 02:31:01;;;;;;;9.88;5.85;;;;;;;9.57;98.91;99344.00;10384940;28;20049;-63
2024/02/07 02:36:04;;;;;;;8.13;5.53;;;;;;;9.52;99.46;99342.59;10388552;28;20159;-64
2024/02/07 02:41:09;;;;;;;11.43;5.50;;;;;;;9.49;99.13;99326.94;10400209;28;20486;-64
2024/02/07 02:46:10;;;;;;;9.77;5.75;;;;;;;9.46;98.64;99305.94;10389938;28;20168;-62
2024/02/07 02:51:12;;;;;;;6.43;4.90;;;;;;;9.63;98.68;99307.06;10396298;28;20071;-64
2024/02/07 02:56:15;;;;;;;7.07;5.55;;;;;;;9.56;98.07;99287.34;10372633;28;20136;-62
2024/02/07 03:01:16;;;;;;;9.23;5.40;;;;;;;9.64;97.84;99313.22;10384973;28;21053;-64
2024/02/07 03:06:28;;;;;;;7.00;4.65;;;;;;;9.61;97.85;99297.53;10392533;28;20068;-63
2024/02/07 03:11:30;;;;;;;7.07;4.80;;;;;;;9.59;97.57;99284.41;10396786;28;20053;-64
2024/02/07 03:16:32;;;;;;;5.85;5.25;;;;;;;9.62;97.14;99262.03;10368304;28;20173;-63
2024/02/07 03:21:34;;;;;;;7.95;4.72;;;;;;;9.64;97.53;99260.91;10393545;28;20137;-63
2024/02/07 03:26:35;;;;;;;6.53;4.45;;;;;;;9.73;96.89;99245.94;10397147;28;20110;-62
2024/02/07 03:31:37;;;;;;;8.15;4.95;;;;;;;9.58;96.11;99226.09;10392769;28;20270;-64
2024/02/07 03:36:39;;;;;;;7.95;4.85;;;;;;;9.75;95.58;99237.84;10393864;28;20406;-64
2024/02/07 03:41:43;;;;;;;6.65;4.28;;;;;;;9.70;95.62;99238.25;10393449;28;20702;-63
2024/02/07 03:46:48;;;;;;;8.35;3.95;;;;;;;9.71;95.64;99230.16;10393848;28;20739;-63
2024/02/07 03:51:52;;;;;;;8.02;4.03;;;;;;;9.70;95.50;99222.31;10394001;28;20817;-64
2024/02/07 03:56:54;;;;;;;4.68;3.63;;;;;;;9.62;95.20;99203.56;10390191;28;20152;-61
2024/02/07 04:01:56;;;;;;;6.28;4.05;;;;;;;9.69;95.11;99224.13;10390911;28;20065;-63
2024/02/07 04:06:58;;;;;;;5.70;3.85;;;;;;;9.74;94.84;99218.38;10393577;28;20053;-63
2024/02/07 05:15:48;;;;;;;10.98;5.70;;;;;;;9.32;100.00;99120.44;10376656;28;20152;-63
2024/02/07 05:20:50;;;;;;;11.57;6.07;;;;;;;9.39;100.00;99105.63;10387571;28;20699;-62
2024/02/07 05:25:53;;;;;;;7.95;6.45;;;;;;;9.27;100.00;99099.63;10388760;28;20439;-63
2024/02/07 05:30:55;;;;;;;8.05;6.15;;;;;;;9.32;100.00;99089.44;10390226;28;20132;-64
2024/02/07 05:35:57;;;;;;;6.70;5.28;;;;;;;9.28;100.00;99092.53;10381721;28;20044;-63
2024/02/07 05:40:59;;;;;;;8.80;5.80;;;;;;;9.17;100.00;99078.44;10388077;28;20539;-63
2024/02/07 05:46:01;;;;;;;9.43;6.32;;;;;;;9.28;100.00;99079.25;10390234;28;20060;-62
2024/02/07 05:51:03;;;;;;;7.63;5.15;;;;;;;9.18;100.00;99084.56;10383197;28;20061;-63
2024/02/07 05:56:05;;;;;;;7.75;6.15;;;;;;;9.25;100.00;99080.38;10397636;28;20114;-64
2024/02/07 06:01:11;;;;;;;8.70;5.82;;;;;;;9.17;100.00;99061.66;10383604;28;20163;-62
2024/02/07 06:06:13;;;;;;;12.50;6.45;;;;;;;9.18;100.00;99074.78;10368854;28;20127;-63
2024/02/07 06:11:15;;;;;;;10.07;5.70;;;;;;;9.30;100.00;99088.72;10395355;28;20068;-59
2024/02/07 06:16:17;;;;;;;7.80;6.18;;;;;;;9.27;100.00;99082.88;10398460;28;20114;-64
2024/02/07 06:21:19;;;;;;;6.60;5.45;;;;;;;9.24;100.00;99081.34;10381933;28;20194;-64
2024/02/07 06:26:22;;;;;;;6.88;5.60;;;;;;;9.20;100.00;99072.84;10393039;28;20151;-62
2024/02/07 06:31:23;;;;;;;7.88;5.88;;;;;;;9.19;100.00;99070.31;10377220;28;20588;-62
2024/02/07 06:36:26;;;;;;;9.68;5.53;;;;;;;9.15;100.00;99067.09;10376913;28;20058;-64
2024/02/07 06:41:27;;;;;;;8.82;5.95;;;;;;;9.19;100.00;99049.09;10385730;28;20052;-64
2024/02/07 06:46:29;;;;;;;9.35;5.18;;;;;;;9.27;100.00;99066.94;10366139;28;20689;-62
2024/02/07 06:51:31;;;;;;;7.80;5.13;;;;;;;9.23;100.00;99077.00;10369481;28;20053;-64
2024/02/07 06:56:34;;;;;;;8.07;5.15;;;;;;;9.15;100.00;99059.13;10391726;28;20049;-64
2024/02/07 07:01:39;;;;;;;7.78;4.88;;;;;;;9.25;100.00;99092.78;10387422;28;20541;-65
2024/02/07 07:06:40;;;;;;;9.05;5.65;;;;;;;9.20;100.00;99056.03;10389648;28;20045;-63
2024/02/07 07:11:42;;;;;;;6.72;5.13;;;;;;;9.26;100.00;99057.28;10383239;28;20049;-65
2024/02/07 07:16:43;;;;;;;7.93;5.40;;;;;;;9.26;100.00;99076.72;10390607;28;20128;-65
2024/02/07 07:21:45;;;;;;;7.28;4.90;;;;;;;9.34;100.00;99074.19;10391347;28;20050;-60
2024/02/07 07:27:00;;;;;;;6.35;4.57;;;;;;;9.26;100.00;99065.25;10388831;28;20156;-63
2024/02/07 07:32:04;;;;;;;6.80;4.25;;;;;;;9.24;100.00;99064.59;10372869;28;20053;-63
2024/02/07 07:37:05;;;;;;;8.25;5.05;;;;;;;9.28;100.00;99079.25;10403985;28;20068;-64
2024/02/07 07:42:11;;;;;;;5.37;3.87;;;;;;;9.23;100.00;99057.59;10387365;28;20517;-63
2024/02/07 07:47:12;;;;;;;6.53;4.22;;;;;;;9.29;100.00;99068.50;10383008;28;20282;-62
2024/02/07 07:52:15;;;;;;;6.70;4.35;;;;;;;9.22;100.00;99038.19;10393403;28;20212;-60
2024/02/07 07:57:17;;;;;;;4.50;3.55;;;;;;;9.29;100.00;99054.34;10394005;28;20068;-64
2024/02/07 08:02:20;;;;;;;5.45;3.88;;;;;;;9.25;100.00;99053.81;10389094;28;20984;-63
2024/02/07 08:07:22;;;;;;;6.25;3.17;;;;;;;9.29;100.00;99054.34;10386904;28;20088;-64
2024/02/07 08:12:24;;;;;;;8.27;3.58;;;;;;;9.31;100.00;99065.69;10375937;28;20056;-64
2024/02/07 08:17:25;;;;;;;4.60;3.33;;;;;;;9.24;100.00;99051.31;10366986;28;20544;-63
2024/02/07 08:22:27;;;;;;;4.05;3.38;;;;;;;9.29;100.00;99052.56;10387049;28;20056;-62
2024/02/07 08:27:28;;;;;;;5.25;3.60;;;;;;;9.35;100.00;99045.81;10405659;28;20049;-64
2024/02/07 08:32:30;;;;;;;3.53;3.00;;;;;;;9.29;100.00;99041.94;10388868;28;21700;-64
2024/02/07 08:37:32;;;;;;;4.30;3.20;;;;;;;9.34;100.00;99052.13;10391734;28;20120;-64
2024/02/07 08:42:35;;;;;;;5.65;3.38;;;;;;;9.31;100.00;99066.50;10391075;28;20474;-63
2024/02/07 08:47:37;;;;;;;6.30;3.47;;;;;;;9.27;100.00;99045.72;10372263;28;20628;-63
2024/02/07 08:52:42;;;;;;;16.38;5.05;;;;;;;9.19;100.00;99031.31;10384236;28;20118;-63
2024/02/07 08:57:44;;;;;;;4.50;3.13;;;;;;;9.39;100.00;99049.84;10370410;28;20056;-63
2024/02/07 09:02:49;;;;;;;5.25;3.65;;;;;;;9.44;100.00;99047.59;10374058;28;20060;-62
2024/02/07 09:07:52;;;;;;;4.18;3.50;;;;;;;9.50;100.00;99038.19;10395026;28;20546;-63
2024/02/07 09:12:54;;;;;;;3.47;2.65;;;;;;;9.37;100.00;99031.41;10385439;28;20060;-62
2024/02/07 09:17:55;;;;;;;4.22;3.80;;;;;;;9.48;100.00;99038.34;10358912;28;20067;-63
2024/02/07 09:22:57;;;;;;;3.70;2.67;;;;;;;9.47;100.00;99042.00;10387626;28;20052;-63
2024/02/07 09:27:59;;;;;;;4.32;3.08;;;;;;;9.51;100.00;99032.75;10357454;28;20068;-63
2024/02/07 09:33:00;;;;;;;3.20;2.60;;;;;;;9.54;100.00;99037.75;10381110;28;20075;-64
2024/02/07 09:38:02;;;;;;;3.55;3.25;;;;;;;9.51;100.00;99031.91;10390951;28;20052;-63
2024/02/07 09:43:04;;;;;;;5.35;3.00;;;;;;;9.56;100.00;99032.28;10385876;28;20661;-61
2024/02/07 09:48:15;;;;;;;4.43;2.55;;;;;;;9.57;100.00;99041.13;10387462;28;20068;-64
2024/02/07 09:53:19;;;;;;;3.53;2.88;;;;;;;9.58;100.00;99026.84;10390782;28;21194;-64
2024/02/07 09:58:21;;;;;;;2.07;1.73;;;;;;;9.62;100.00;99022.91;10371785;28;20057;-65
2024/02/07 10:03:24;;;;;;;2.35;1.95;;;;;;;9.65;100.00;99011.97;10390225;28;20053;-64
2024/02/07 10:08:29;;;;;;;4.75;2.85;;;;;;;9.71;100.00;99012.25;10369756;28;20506;-64
2024/02/07 10:13:33;;;;;;;5.03;1.90;;;;;;;9.77;100.00;99002.00;10385594;28;20052;-61
2024/02/07 10:18:35;;;;;;;4.32;2.22;;;;;;;9.83;100.00;99004.91;10386658;28;20096;-64
2024/02/07 10:23:40;;;;;;;5.05;3.05;;;;;;;9.84;100.00;99005.72;10388775;28;20140;-63
2024/02/07 10:28:41;;;;;;;4.85;2.45;;;;;;;9.92;100.00;98997.84;10382853;28;20057;-64
2024/02/07 10:33:46;;;;;;;9.48;6.50;;;;;;;9.89;100.00;99004.31;10386910;28;20506;-61
2024/02/07 10:38:52;;;;;;;3.40;2.60;;;;;;;9.86;100.00;98987.81;10392530;28;20660;-64
2024/02/07 10:44:04;;;;;;;3.38;2.88;;;;;;;9.95;100.00;98996.69;10392868;28;20261;-63
2024/02/07 10:49:09;;;;;;;3.45;2.30;;;;;;;10.01;100.00;98999.63;10390784;28;20053;-62
2024/02/07 10:54:11;;;;;;;2.60;1.80;;;;;;;10.06;100.00;98988.53;10393305;28;20049;-63
2024/02/07 10:59:13;;;;;;;3.00;1.85;;;;;;;10.06;100.00;98994.66;10380011;28;20238;-63
2024/02/07 11:04:15;;;;;;;3.42;2.25;;;;;;;10.06;100.00;98980.53;10368716;28;20056;-61
2024/02/07 11:09:18;;;;;;;4.70;3.72;;;;;;;10.13;100.00;98975.44;10404335;28;20053;-67
2024/02/07 11:14:19;;;;;;;3.03;2.17;;;;;;;10.11;100.00;98956.97;10398504;28;20531;-64
2024/02/07 11:19:21;;;;;;;4.13;1.83;;;;;;;10.14;100.00;98954.03;10389298;28;20057;-63
2024/02/07 11:24:25;;;;;;;2.67;1.90;;;;;;;10.07;100.00;98943.16;10394618;28;20744;-64
2024/02/07 11:29:27;;;;;;;4.72;2.28;;;;;;;10.19;100.00;98941.13;10392906;28;20098;-64
2024/02/07 11:34:32;;;;;;;2.67;1.90;;;;;;;10.30;100.00;98941.84;10387863;28;20060;-64
2024/02/07 11:39:38;;;;;;;3.33;2.30;;;;;;;10.33;100.00;98945.09;10388622;28;20611;-67
2024/02/07 11:44:58;;;;;;;4.05;1.45;;;;;;;10.20;100.00;98924.16;10379104;28;20083;-63
2024/02/07 11:50:05;;;;;;;1.17;0.85;;;;;;;10.32;100.00;98945.19;10393330;28;20075;-64
2024/02/07 11:55:12;;;;;;;1.58;1.10;;;;;;;10.35;100.00;98928.97;10383666;28;20158;-64
2024/02/07 12:00:15;;;;;;;1.77;1.05;;;;;;;10.40;100.00;98926.66;10389306;28;20045;-64
2024/02/07 12:05:19;;;;;;;1.20;0.68;;;;;;;10.40;100.00;98924.00;10375860;28;20140;-65
2024/02/07 12:10:22;;;;;;;1.70;0.95;;;;;;;10.46;100.00;98920.72;10367200;28;20056;-66
2024/02/07 12:15:27;;;;;;;1.52;0.90;;;;;;;10.43;100.00;98895.28;10383181;28;20064;-64
2024/02/07 12:20:29;;;;;;;1.95;1.42;;;;;;;10.33;100.00;98877.69;10385387;28;20064;-64
2024/02/07 12:25:31;;;;;;;1.70;1.38;;;;;;;10.52;100.00;98909.44;10387553;28;20045;-65
2024/02/07 12:30:33;;;;;;;1.67;1.02;;;;;;;10.56;100.00;98916.13;10377552;28;20140;-65
2024/02/07 12:35:34;;;;;;;1.55;0.90;;;;;;;10.57;100.00;98911.66;10380293;28;20106;-63
2024/02/07 12:40:36;;;;;;;1.95;1.15;;;;;;;10.63;100.00;98905.72;10376552;28;20053;-64
2024/02/07 12:45:38;;;;;;;3.03;1.42;;;;;;;10.64;100.00;98911.88;10383959;28;20057;-63
2024/02/07 12:50:39;;;;;;;1.35;1.00;;;;;;;10.57;100.00;98911.66;10389152;28;20113;-64
2024/02/07 12:55:45;;;;;;;1.55;1.10;;;;;;;10.48;100.00;98900.13;10373310;28;20423;-65
2024/02/07 13:00:47;;;;;;;1.98;1.40;;;;;;;10.52;100.00;98893.50;10405365;28;20179;-64
2024/02/07 13:05:49;;;;;;;1.95;0.90;;;;;;;10.60;100.00;98925.50;10387879;28;20136;-65
2024/02/07 13:10:50;;;;;;;1.67;0.80;;;;;;;10.55;100.00;98930.47;10392058;28;20085;-64
2024/02/07 13:15:54;;;;;;;1.67;0.77;;;;;;;10.54;100.00;98944.75;10379971;28;20557;-63
2024/02/07 13:21:01;;;;;;;1.13;0.22;;;;;;;9.82;100.00;98968.69;10375146;28;20053;-64
2024/02/07 13:26:04;;;;;;;0.77;0.52;;;;;;;9.72;100.00;98970.56;10388399;28;20531;-65
2024/02/07 13:31:07;;;;;;;0.57;0.10;;;;;;;9.41;99.71;98978.81;10389453;28;20144;-65
2024/02/07 13:36:09;;;;;;;2.05;0.52;;;;;;;9.20;100.00;99009.13;10393448;28;20053;-65
2024/02/07 13:41:11;;;;;;;0.73;0.10;;;;;;;9.06;98.88;99000.78;10384263;28;20119;-64
2024/02/07 13:46:12;;;;;;;1.25;1.15;;;;;;;8.77;95.85;98991.91;10389554;28;20056;-65
2024/02/07 13:51:16;;;;;;;0.40;0.10;;;;;;;8.37;98.05;99022.06;10393161;28;20163;-64
2024/02/07 13:56:19;;;;;;;0.15;0.00;;;;;;;8.31;96.23;99026.09;10392974;28;20587;-64
2024/02/07 14:01:21;;;;;;;0.93;0.10;;;;;;;8.43;96.53;99021.50;10385217;28;20090;-65
2024/02/07 14:06:24;;;;;;;0.75;0.20;;;;;;;8.36;96.35;99027.50;10392856;28;20095;-62
2024/02/07 14:11:25;;;;;;;0.98;0.50;;;;;;;7.99;94.33;99029.00;10396369;28;20134;-61
2024/02/07 14:16:27;;;;;;;0.63;0.10;;;;;;;8.08;94.93;99028.19;10376928;28;20538;-61
2024/02/07 14:21:28;;;;;;;0.40;0.00;;;;;;;7.54;93.70;99024.16;10394817;28;20083;-64
2024/02/07 14:26:31;;;;;;;0.80;0.20;;;;;;;7.86;94.64;99039.84;10389743;28;20551;-62
2024/02/07 14:31:32;;;;;;;0.93;0.20;;;;;;;7.99;94.30;99031.66;10409401;28;20447;-64
2024/02/07 14:36:34;;;;;;;1.48;0.10;;;;;;;8.13;92.79;99041.84;10405173;28;20057;-62
2024/02/07 14:41:35;;;;;;;1.95;0.40;;;;;;;8.16;94.88;99042.56;10400246;28;20084;-64
2024/02/07 14:46:37;;;;;;;1.98;0.30;;;;;;;8.19;93.21;99050.25;10383047;28;20049;-66
2024/02/07 14:51:38;;;;;;;1.50;0.82;;;;;;;8.17;93.15;99041.56;10395328;28;20084;-68
2024/02/07 14:56:40;;;;;;;0.70;0.10;;;;;;;8.05;93.03;99052.31;10388261;28;20102;-64
2024/02/07 15:01:41;;;;;;;2.55;1.60;;;;;;;8.07;94.04;99053.00;10392689;28;20126;-63
2024/02/07 15:06:43;;;;;;;1.35;0.30;;;;;;;8.05;92.66;99039.06;10393941;28;20073;-64
2024/02/07 15:11:45;;;;;;;0.40;0.20;;;;;;;8.04;93.01;99020.66;10374726;28;20045;-63
2024/02/07 15:16:46;;;;;;;1.20;0.40;;;;;;;8.01;93.11;99035.00;10381114;28;20067;-65
2024/02/07 15:21:47;;;;;;;1.33;0.60;;;;;;;8.11;93.80;99029.72;10394092;28;20057;-65
2024/02/07 15:26:49;;;;;;;1.25;0.70;;;;;;;8.01;93.39;99020.94;10395162;28;20054;-65
2024/02/07 15:31:52;;;;;;;1.08;0.52;;;;;;;7.95;93.08;99020.47;10394058;28;20861;-65
2024/02/07 15:36:54;;;;;;;2.92;1.67;;;;;;;7.89;92.42;99026.31;10388088;28;20060;-64
2024/02/07 15:41:57;;;;;;;2.75;1.00;;;;;;;7.90;93.66;99024.53;10392109;28;20052;-64
2024/02/07 15:46:58;;;;;;;1.23;0.40;;;;;;;7.96;93.14;99029.28;10383539;28;20153;-64
2024/02/07 15:52:00;;;;;;;1.40;0.60;;;;;;;7.95;91.64;99027.59;10386583;28;20053;-64
2024/02/07 15:57:03;;;;;;;11.57;7.90;;;;;;;7.89;92.09;99033.44;10400968;28;20098;-64
2024/02/07 16:02:05;;;;;;;1.35;0.60;;;;;;;7.87;93.12;99017.69;10395936;28;20099;-63
2024/02/07 16:07:07;;;;;;;1.33;0.28;;;;;;;7.75;91.41;98995.78;10385154;28;20224;-63
2024/02/07 16:12:09;;;;;;;1.25;0.40;;;;;;;7.91;91.76;99026.19;10383672;28;20056;-63
2024/02/07 16:17:11;;;;;;;1.27;0.40;;;;;;;7.41;92.47;98944.94;10393404;28;20204;-63
2024/02/07 16:22:12;;;;;;;2.05;0.73;;;;;;;7.87;91.38;99014.22;10389069;28;20061;-63
2024/02/07 16:27:14;;;;;;;1.13;0.30;;;;;;;7.78;92.88;98995.50;10394642;28;20045;-65
2024/02/07 16:32:15;;;;;;;1.80;1.00;;;;;;;7.89;93.76;99022.84;10384523;28;20102;-63
2024/02/07 16:37:19;;;;;;;1.27;0.70;;;;;;;7.74;92.25;99004.69;10384897;28;20433;-65
2024/02/07 16:42:21;;;;;;;1.02;0.57;;;;;;;7.76;94.72;99008.06;10396705;28;20049;-63
2024/02/07 16:47:26;;;;;;;1.75;1.10;;;;;;;7.76;93.32;99010.69;10391351;28;20049;-62
2024/02/07 16:52:28;;;;;;;0.80;0.50;;;;;;;7.70;91.92;99018.34;10386989;28;20787;-63
2024/02/07 16:57:29;;;;;;;3.22;1.08;;;;;;;7.65;92.40;99016.09;10378478;28;20064;-62
2024/02/07 17:02:31;;;;;;;1.20;0.60;;;;;;;7.68;93.86;99007.06;10387538;28;20081;-64
2024/02/07 17:07:33;;;;;;;1.08;0.50;;;;;;;7.68;93.17;99015.81;10391348;28;20061;-64
2024/02/07 17:12:35;;;;;;;1.10;0.88;;;;;;;7.69;93.98;99021.97;10390217;28;20692;-64
2024/02/07 17:17:37;;;;;;;2.17;1.08;;;;;;;7.58;93.55;99007.00;10374929;28;20070;-64
2024/02/07 17:22:39;;;;;;;2.17;0.88;;;;;;;7.59;93.90;99014.81;10389550;28;20120;-63
2024/02/07 17:27:40;;;;;;;4.13;1.98;;;;;;;7.48;93.88;99003.50;10385557;28;20244;-65
2024/02/07 17:32:42;;;;;;;1.85;0.82;;;;;;;7.52;92.80;99002.25;10371498;28;20081;-64
2024/02/07 17:37:43;;;;;;;1.77;1.13;;;;;;;7.58;94.80;99009.66;10362078;28;20100;-64
2024/02/07 17:42:45;;;;;;;1.83;1.45;;;;;;;7.54;92.27;99013.56;10400714;28;20445;-61
2024/02/07 17:47:48;;;;;;;1.63;1.48;;;;;;;7.55;93.66;99024.03;10398087;28;20161;-63
2024/02/07 17:52:49;;;;;;;2.55;2.00;;;;;;;7.54;93.54;99024.16;10406702;28;20060;-63
2024/02/07 17:57:51;;;;;;;1.88;1.75;;;;;;;7.47;92.65;99023.00;10378790;28;20067;-62
2024/02/07 18:02:59;;;;;;;2.47;1.88;;;;;;;7.43;94.04;99018.00;10382760;28;20514;-64
2024/02/07 18:08:00;;;;;;;2.53;2.17;;;;;;;7.37;93.00;99007.94;10394662;28;20143;-63
2024/02/07 18:13:02;;;;;;;3.95;3.47;;;;;;;7.28;91.33;99021.97;10385664;28;20756;-65
2024/02/07 18:18:04;;;;;;;2.33;2.13;;;;;;;7.32;94.12;99010.13;10372875;28;20139;-64
2024/02/07 18:23:06;;;;;;;2.50;1.60;;;;;;;7.32;93.59;98996.88;10390458;28;20057;-64
2024/02/07 18:28:07;;;;;;;1.65;1.55;;;;;;;7.19;93.23;98990.97;10397357;28;20742;-64
2024/02/07 18:33:10;;;;;;;4.72;3.30;;;;;;;7.32;92.87;98994.25;10379925;28;20099;-64
2024/02/07 18:38:12;;;;;;;5.38;4.47;;;;;;;7.33;93.09;98989.81;10404078;28;20045;-61
2024/02/07 18:43:13;;;;;;;3.50;3.00;;;;;;;7.26;93.77;98990.31;10400799;28;20049;-64
2024/02/07 18:48:15;;;;;;;3.35;2.22;;;;;;;7.30;93.88;98974.19;10366582;28;20057;-61
2024/02/07 18:53:17;;;;;;;2.72;2.42;;;;;;;7.14;92.18;98958.78;10395551;28;20048;-65
2024/02/07 18:58:22;;;;;;;2.17;1.98;;;;;;;7.25;94.97;98978.06;10394708;28;20057;-64
2024/02/07 19:03:24;;;;;;;2.92;2.40;;;;;;;7.24;92.99;98978.22;10389171;28;20053;-63
2024/02/07 19:08:27;;;;;;;3.42;3.17;;;;;;;7.23;93.66;98955.34;10385521;28;20135;-63
2024/02/07 19:13:28;;;;;;;3.67;2.67;;;;;;;7.18;92.02;98960.22;10394596;28;20064;-63
2024/02/07 19:18:30;;;;;;;2.58;2.38;;;;;;;7.19;93.98;98967.16;10394600;28;20061;-61
2024/02/07 19:23:32;;;;;;;2.55;2.35;;;;;;;7.12;92.71;98947.53;10392304;28;20052;-65
2024/02/07 19:28:36;;;;;;;2.78;2.58;;;;;;;7.08;93.01;98955.69;10389879;28;20053;-63
2024/02/07 19:33:38;;;;;;;2.92;2.63;;;;;;;7.08;93.49;98934.53;10385536;28;20070;-66
2024/02/07 19:38:40;;;;;;;2.92;2.70;;;;;;;7.11;93.40;98930.78;10385122;28;20498;-66
2024/02/07 19:43:42;;;;;;;3.40;3.10;;;;;;;7.15;92.67;98929.56;10398523;28;20526;-62
2024/02/07 19:48:43;;;;;;;3.22;3.03;;;;;;;7.16;93.73;98919.78;10386644;28;20045;-64
2024/02/07 19:53:45;;;;;;;3.30;3.00;;;;;;;7.14;93.29;98922.56;10399491;28;20056;-64
2024/02/07 19:58:47;;;;;;;3.80;2.70;;;;;;;7.03;95.01;98914.75;10382731;28;20054;-65
2024/02/07 20:03:49;;;;;;;3.47;3.17;;;;;;;7.05;93.33;98923.38;10387375;28;20062;-63
2024/02/07 20:08:50;;;;;;;3.33;3.03;;;;;;;7.06;94.07;98914.50;10403411;28;20142;-62
2024/02/07 20:13:54;;;;;;;3.13;2.83;;;;;;;7.08;93.77;98929.22;10390924;28;20383;-63
2024/02/07 20:19:00;;;;;;;3.55;2.80;;;;;;;7.03;93.59;98912.09;10376557;28;20060;-64
2024/02/07 20:24:02;;;;;;;3.33;2.83;;;;;;;7.04;93.39;98903.19;10396319;28;20129;-64
2024/02/07 20:29:04;;;;;;;4.20;3.13;;;;;;;7.02;94.46;98900.66;10365623;28;20171;-65
2024/02/07 20:34:06;;;;;;;3.90;3.60;;;;;;;7.05;93.73;98897.75;10386652;28;20045;-64
2024/02/07 20:39:08;;;;;;;3.70;3.40;;;;;;;6.93;93.93;98885.59;10398017;28;20100;-65
2024/02/07 20:44:16;;;;;;;3.50;3.20;;;;;;;6.92;94.08;98880.44;10396511;28;20045;-62
2024/02/07 20:49:18;;;;;;;4.60;4.20;;;;;;;6.99;94.06;98887.72;10387066;28;20495;-64
2024/02/07 20:54:20;;;;;;;4.13;3.53;;;;;;;6.98;93.06;98886.06;10390002;28;20107;-66
2024/02/07 20:59:22;;;;;;;4.00;3.60;;;;;;;7.08;94.49;98876.31;10357626;28;20079;-64
2024/02/07 21:04:24;;;;;;;3.50;3.20;;;;;;;7.03;93.48;98883.00;10374948;28;20058;-62
2024/02/07 21:09:25;;;;;;;3.38;3.00;;;;;;;7.01;93.68;98864.63;10385602;28;20227;-63
2024/02/07 21:14:31;;;;;;;3.67;2.90;;;;;;;6.97;93.77;98863.22;10392493;28;20080;-63
2024/02/07 21:19:34;;;;;;;3.00;2.70;;;;;;;7.01;96.00;98846.09;10391344;28;20495;-64
2024/02/07 21:24:37;;;;;;;3.13;2.75;;;;;;;6.90;94.11;98862.06;10384929;28;20051;-64
2024/02/07 21:29:38;;;;;;;2.88;2.58;;;;;;;6.92;95.22;98849.56;10384737;28;20048;-65
2024/02/07 21:34:40;;;;;;;2.20;2.00;;;;;;;6.98;95.99;98853.44;10377283;28;20048;-65
2024/02/07 21:39:43;;;;;;;2.72;2.45;;;;;;;6.96;94.61;98845.66;10389558;28;20108;-63
2024/02/07 21:44:45;;;;;;;2.60;2.40;;;;;;;6.91;93.78;98842.59;10383606;28;20084;-64
2024/02/07 21:49:46;;;;;;;2.70;2.28;;;;;;;6.94;94.77;98847.59;10385393;28;20057;-63
2024/02/07 21:54:48;;;;;;;2.95;2.20;;;;;;;6.93;95.08;98837.97;10369190;28;20838;-63
2024/02/07 21:59:49;;;;;;;2.70;1.73;;;;;;;6.91;94.29;98839.94;10364690;28;20049;-62
2024/02/07 22:04:51;;;;;;;2.20;1.88;;;;;;;6.93;94.10;98840.63;10388585;28;20051;-64
2024/02/07 22:09:53;;;;;;;1.50;1.35;;;;;;;6.87;93.92;98843.81;10373884;28;20049;-64
2024/02/07 22:14:55;;;;;;;1.42;1.15;;;;;;;6.83;93.43;98845.03;10371501;28;20136;-64
2024/02/07 22:19:57;;;;;;;1.40;1.25;;;;;;;6.79;93.50;98828.63;10387623;28;20122;-61
2024/02/07 22:25:05;;;;;;;1.98;1.35;;;;;;;6.74;95.06;98836.13;10383519;28;20060;-63
2024/02/07 22:30:07;;;;;;;1.00;0.90;;;;;;;6.80;94.89;98834.75;10386770;28;20049;-63
2024/02/07 22:35:08;;;;;;;1.58;0.93;;;;;;;6.79;93.90;98828.63;10380203;28;20053;-63
2024/02/07 22:40:15;;;;;;;1.48;1.00;;;;;;;6.82;94.64;98816.94;10393321;28;20136;-64
2024/02/07 22:45:22;;;;;;;0.93;0.47;;;;;;;6.78;93.96;98816.34;10364048;28;20722;-63
2024/02/07 22:50:25;;;;;;;1.45;0.68;;;;;;;6.67;93.28;98809.38;10388302;28;20112;-64
2024/02/07 22:55:26;;;;;;;1.05;0.88;;;;;;;6.71;94.30;98816.06;10392912;28;20481;-62
2024/02/07 23:00:32;;;;;;;1.02;0.60;;;;;;;6.81;94.15;98820.56;10389438;28;20068;-64
2024/02/07 23:05:34;;;;;;;0.80;0.40;;;;;;;6.79;94.23;98818.03;10390678;28;20044;-64
2024/02/07 23:10:36;;;;;;;0.60;0.40;;;;;;;6.61;93.37;98819.66;10388805;28;20102;-63
2024/02/07 23:15:38;;;;;;;5.40;3.78;;;;;;;6.54;93.99;98796.41;10391143;28;20053;-64
2024/02/07 23:20:40;;;;;;;1.00;0.60;;;;;;;6.72;93.33;98830.97;10393691;28;20457;-64
2024/02/07 23:25:42;;;;;;;0.70;0.30;;;;;;;6.65;93.33;98821.91;10393787;28;20144;-64
2024/02/07 23:30:46;;;;;;;0.70;0.50;;;;;;;6.61;93.51;98811.72;10387128;28;21986;-63
2024/02/07 23:35:47;;;;;;;1.20;0.73;;;;;;;6.73;93.91;98829.97;10391002;28;20064;-64
2024/02/07 23:40:50;;;;;;;0.73;0.60;;;;;;;6.75;93.89;98821.09;10374484;28;20188;-62
2024/02/07 23:45:51;;;;;;;1.00;0.57;;;;;;;6.73;94.19;98819.41;10377397;28;20053;-63
2024/02/07 23:50:54;;;;;;;1.02;0.68;;;;;;;6.76;94.22;98810.38;10366196;28;20150;-64
2024/02/07 23:55:56;;;;;;;0.90;0.68;;;;;;;6.76;94.05;98815.66;10400078;28;20527;-63
